createdAt,value
2023-03-25T00:01:17.369Z,11.43
2023-03-25T00:03:50.895Z,11.42
2023-03-25T00:06:17.766Z,11.42
2023-03-25T00:08:44.165Z,11.32
2023-03-25T00:11:10.494Z,11.28
2023-03-25T00:13:36.957Z,11.28
2023-03-25T00:16:04.460Z,11.22
2023-03-25T00:18:35.296Z,11.18
2023-03-25T00:21:03.413Z,11.23
2023-03-25T00:23:31.267Z,11.20
2023-03-25T00:26:00.365Z,11.26
2023-03-25T00:28:30.753Z,11.17
2023-03-25T00:31:11.306Z,11.08
2023-03-25T00:33:37.873Z,11.13
2023-03-25T00:36:05.393Z,11.12
2023-03-25T00:38:35.253Z,11.19
2023-03-25T00:41:26.025Z,11.19
2023-03-25T00:43:54.588Z,11.20
2023-03-25T00:46:22.824Z,11.19
2023-03-25T00:48:50.705Z,11.08
2023-03-25T00:51:21.223Z,11.13
2023-03-25T00:53:53.128Z,11.11
2023-03-25T00:56:20.703Z,11.11
2023-03-25T00:58:47.121Z,11.15
2023-03-25T01:01:23.206Z,11.15
2023-03-25T01:03:57.652Z,11.11
2023-03-25T01:06:45.993Z,11.14
2023-03-25T01:09:15.438Z,11.18
2023-03-25T01:11:44.210Z,11.18
2023-03-25T01:14:17.535Z,11.10
2023-03-25T01:16:44.630Z,11.13
2023-03-25T01:19:12.375Z,11.11
2023-03-25T01:21:40.150Z,11.14
2023-03-25T01:24:07.929Z,11.17
2023-03-25T01:26:34.599Z,11.18
2023-03-25T01:29:01.024Z,11.22
2023-03-25T01:31:30.154Z,11.17
2023-03-25T01:33:57.809Z,11.22
2023-03-25T01:36:30.419Z,11.18
2023-03-25T01:38:59.130Z,11.14
2023-03-25T01:41:33.203Z,11.16
2023-03-25T01:44:14.944Z,11.11
2023-03-25T01:46:45.509Z,11.11
2023-03-25T01:49:24.612Z,11.13
2023-03-25T01:51:55.053Z,11.17
2023-03-25T01:54:21.613Z,11.21
2023-03-25T01:56:50.722Z,11.19
2023-03-25T01:59:20.045Z,11.08
2023-03-25T02:01:47.100Z,11.04
2023-03-25T02:04:17.253Z,11.07
2023-03-25T02:06:46.303Z,11.18
2023-03-25T02:09:16.474Z,11.16
2023-03-25T02:11:42.976Z,11.15
2023-03-25T02:14:13.709Z,11.18
2023-03-25T02:17:10.997Z,11.05
2023-03-25T02:20:11.107Z,10.98
2023-03-25T02:22:55.619Z,10.86
2023-03-25T02:25:46.938Z,10.87
2023-03-25T02:28:29.155Z,10.78
2023-03-25T02:31:11.527Z,10.71
2023-03-25T02:34:06.835Z,10.62
2023-03-25T02:36:48.703Z,10.58
2023-03-25T02:39:29.950Z,10.58
2023-03-25T02:42:30.358Z,10.44
2023-03-25T02:45:03.784Z,10.25
2023-03-25T02:47:44.474Z,10.24
2023-03-25T02:50:27.374Z,10.18
2023-03-25T02:53:04.386Z,10.22
2023-03-25T02:55:33.304Z,10.20
2023-03-25T02:58:04.311Z,10.24
2023-03-25T03:00:31.476Z,10.28
2023-03-25T03:03:01.346Z,10.26
2023-03-25T03:05:33.618Z,10.28
2023-03-25T03:08:32.378Z,10.32
2023-03-25T03:11:07.934Z,10.38
2023-03-25T03:13:57.905Z,10.36
2023-03-25T03:16:42.657Z,10.34
2023-03-25T03:19:38.309Z,10.30
2023-03-25T03:22:14.165Z,10.35
2023-03-25T03:24:46.984Z,10.36
2023-03-25T03:27:33.760Z,10.35
2023-03-25T03:30:14.139Z,10.35
2023-03-25T03:32:49.815Z,10.38
2023-03-25T03:35:27.502Z,10.43
2023-03-25T03:38:01.661Z,10.37
2023-03-25T03:40:31.425Z,10.44
2023-03-25T03:43:03.255Z,10.47
2023-03-25T03:45:53.887Z,10.37
2023-03-25T03:48:28.270Z,10.36
2023-03-25T03:51:04.872Z,10.39
2023-03-25T03:53:36.479Z,10.41
2023-03-25T03:56:09.659Z,10.40
2023-03-25T03:58:43.214Z,10.47
2023-03-25T04:01:27.883Z,10.56
2023-03-25T04:03:59.579Z,10.48
2023-03-25T04:06:56.671Z,10.42
2023-03-25T04:09:34.786Z,10.41
2023-03-25T04:12:10.754Z,10.40
2023-03-25T04:14:38.750Z,10.46
2023-03-25T04:17:06.416Z,10.52
2023-03-25T04:19:34.064Z,10.45
2023-03-25T04:22:01.940Z,10.47
2023-03-25T04:24:32.437Z,10.47
2023-03-25T04:27:03.321Z,10.46
2023-03-25T04:29:33.744Z,10.44
2023-03-25T04:32:01.477Z,10.47
2023-03-25T04:34:28.446Z,10.49
2023-03-25T04:36:57.289Z,10.47
2023-03-25T04:39:25.544Z,10.46
2023-03-25T04:42:03.260Z,10.44
2023-03-25T04:44:33.498Z,10.41
2023-03-25T04:47:02.224Z,10.39
2023-03-25T04:49:28.619Z,10.36
2023-03-25T04:51:55.577Z,10.42
2023-03-25T04:54:23.439Z,10.42
2023-03-25T04:56:51.282Z,10.37
2023-03-25T04:59:19.469Z,10.43
2023-03-25T05:01:46.144Z,10.35
2023-03-25T05:04:17.144Z,10.35
2023-03-25T05:06:47.035Z,10.38
2023-03-25T05:09:22.194Z,10.42
2023-03-25T05:11:50.260Z,10.39
2023-03-25T05:14:19.218Z,10.37
2023-03-25T05:16:46.543Z,10.41
2023-03-25T05:19:14.688Z,10.44
2023-03-25T05:21:42.274Z,10.42
2023-03-25T05:24:11.368Z,10.37
2023-03-25T05:26:39.936Z,10.30
2023-03-25T05:29:15.738Z,10.32
2023-03-25T05:31:48.391Z,10.32
2023-03-25T05:34:16.988Z,10.35
2023-03-25T05:36:43.624Z,10.40
2023-03-25T05:39:11.184Z,10.42
2023-03-25T05:41:41.493Z,10.47
2023-03-25T05:44:10.223Z,10.44
2023-03-25T05:46:36.642Z,10.45
2023-03-25T05:49:03.168Z,10.38
2023-03-25T05:51:38.513Z,10.40
2023-03-25T05:54:10.834Z,10.35
2023-03-25T05:56:38.016Z,10.41
2023-03-25T05:59:04.888Z,10.46
2023-03-25T06:01:34.177Z,10.45
2023-03-25T06:04:02.249Z,10.49
2023-03-25T06:06:30.351Z,10.50
2023-03-25T06:08:56.835Z,10.49
2023-03-25T06:11:23.255Z,10.51
2023-03-25T06:13:49.883Z,10.54
2023-03-25T06:16:18.973Z,10.52
2023-03-25T06:18:50.406Z,10.49
2023-03-25T06:21:20.649Z,10.51
2023-03-25T06:23:50.444Z,10.51
2023-03-25T06:26:17.922Z,10.55
2023-03-25T06:28:44.877Z,10.55
2023-03-25T06:31:20.412Z,10.49
2023-03-25T06:33:48.461Z,10.46
2023-03-25T06:36:18.801Z,10.51
2023-03-25T06:38:46.714Z,10.44
2023-03-25T06:41:20.345Z,10.49
2023-03-25T06:43:48.278Z,10.43
2023-03-25T06:46:14.924Z,10.51
2023-03-25T06:48:41.378Z,10.43
2023-03-25T06:51:08.212Z,10.37
2023-03-25T06:53:34.725Z,10.39
2023-03-25T06:56:01.112Z,10.51
2023-03-25T06:58:34.935Z,10.61
2023-03-25T07:01:06.812Z,10.67
2023-03-25T07:03:34.964Z,10.67
2023-03-25T07:06:01.391Z,10.67
2023-03-25T07:08:27.781Z,10.70
2023-03-25T07:10:54.182Z,10.67
2023-03-25T07:13:20.716Z,10.62
2023-03-25T07:15:47.158Z,10.53
2023-03-25T07:18:13.553Z,10.60
2023-03-25T07:20:39.989Z,10.55
2023-03-25T07:23:12.689Z,10.49
2023-03-25T07:25:39.102Z,10.50
2023-03-25T07:28:05.451Z,10.56
2023-03-25T07:30:31.827Z,10.61
2023-03-25T07:32:58.763Z,10.73
2023-03-25T07:35:25.216Z,10.77
2023-03-25T07:37:51.622Z,10.77
2023-03-25T07:40:18.197Z,10.72
2023-03-25T07:42:45.577Z,10.75
2023-03-25T07:45:12.357Z,10.81
2023-03-25T07:47:38.873Z,10.81
2023-03-25T07:50:06.025Z,10.77
2023-03-25T07:52:32.607Z,10.66
2023-03-25T07:55:00.715Z,10.67
2023-03-25T07:57:27.291Z,10.64
2023-03-25T07:59:53.860Z,10.64
2023-03-25T08:02:20.507Z,10.60
2023-03-25T08:04:47.089Z,10.59
2023-03-25T08:07:13.448Z,10.60
2023-03-25T08:09:41.536Z,10.62
2023-03-25T08:12:08.508Z,10.66
2023-03-25T08:14:34.889Z,10.68
2023-03-25T08:17:01.438Z,10.70
2023-03-25T08:19:27.941Z,10.73
2023-03-25T08:21:54.241Z,10.71
2023-03-25T08:24:20.872Z,10.76
2023-03-25T08:26:48.081Z,10.76
2023-03-25T08:29:17.368Z,10.84
2023-03-25T08:31:46.921Z,11.05
2023-03-25T08:34:14.095Z,11.19
2023-03-25T08:36:40.615Z,11.10
2023-03-25T08:39:11.564Z,11.09
2023-03-25T08:41:39.531Z,11.20
2023-03-25T08:44:06.950Z,11.22
2023-03-25T08:46:33.477Z,11.22
2023-03-25T08:48:59.879Z,11.23
2023-03-25T08:51:26.282Z,11.27
2023-03-25T08:53:52.665Z,11.36
2023-03-25T08:56:19.062Z,11.29
2023-03-25T08:58:45.566Z,11.37
2023-03-25T09:01:12.274Z,11.40
2023-03-25T09:03:40.852Z,11.50
2023-03-25T09:06:08.998Z,11.49
2023-03-25T09:08:37.335Z,11.46
2023-03-25T09:11:04.366Z,11.46
2023-03-25T09:13:31.538Z,11.44
2023-03-25T09:15:58.762Z,11.41
2023-03-25T09:18:25.227Z,11.38
2023-03-25T09:20:51.992Z,11.38
2023-03-25T09:23:18.501Z,11.37
2023-03-25T09:25:46.221Z,11.36
2023-03-25T09:28:12.598Z,11.34
2023-03-25T09:30:38.951Z,11.41
2023-03-25T09:33:05.790Z,11.49
2023-03-25T09:35:32.595Z,11.52
2023-03-25T09:37:59.184Z,11.56
2023-03-25T09:40:25.758Z,11.55
2023-03-25T09:43:13.345Z,11.65
2023-03-25T09:45:47.356Z,11.77
2023-03-25T09:48:27.076Z,11.81
2023-03-25T09:50:53.874Z,11.80
2023-03-25T09:53:58.498Z,11.83
2023-03-25T09:56:30.883Z,11.84
2023-03-25T09:59:05.686Z,11.94
2023-03-25T10:01:42.432Z,12.29
2023-03-25T10:04:23.498Z,12.35
2023-03-25T10:07:03.438Z,12.35
2023-03-25T10:09:52.544Z,12.28
2023-03-25T10:12:32.439Z,12.26
2023-03-25T10:15:25.780Z,12.31
2023-03-25T10:18:12.815Z,12.32
2023-03-25T10:20:47.448Z,12.35
2023-03-25T10:23:21.594Z,12.20
2023-03-25T10:25:54.706Z,12.28
2023-03-25T10:28:33.061Z,12.28
2023-03-25T10:31:00.144Z,12.35
2023-03-25T10:33:37.204Z,12.30
2023-03-25T10:36:07.504Z,12.28
2023-03-25T10:38:36.286Z,12.34
2023-03-25T10:41:17.893Z,12.42
2023-03-25T10:43:44.273Z,12.63
2023-03-25T10:46:25.841Z,12.71
2023-03-25T10:48:52.444Z,12.76
2023-03-25T10:51:35.645Z,12.93
2023-03-25T10:54:02.646Z,13.22
2023-03-25T10:56:40.502Z,13.68
2023-03-25T10:59:22.895Z,13.80
2023-03-25T11:01:50.678Z,13.50
2023-03-25T11:04:19.857Z,13.39
2023-03-25T11:06:52.513Z,13.31
2023-03-25T11:09:30.465Z,13.27
2023-03-25T11:12:01.137Z,13.11
2023-03-25T11:14:29.217Z,12.79
2023-03-25T11:17:05.700Z,12.65
2023-03-25T11:19:53.475Z,12.82
2023-03-25T11:22:26.402Z,12.88
2023-03-25T11:24:59.758Z,12.98
2023-03-25T11:27:29.062Z,13.12
2023-03-25T11:30:01.447Z,13.43
2023-03-25T11:32:36.732Z,13.61
2023-03-25T11:35:18.399Z,13.63
2023-03-25T11:37:49.078Z,13.50
2023-03-25T11:40:17.950Z,13.23
2023-03-25T11:42:49.737Z,13.20
2023-03-25T11:45:24.546Z,13.07
2023-03-25T11:47:52.516Z,13.02
2023-03-25T11:50:22.584Z,12.94
2023-03-25T11:52:52.316Z,12.88
2023-03-25T11:55:25.025Z,12.79
2023-03-25T11:57:54.558Z,12.79
2023-03-25T12:00:31.488Z,12.82
2023-03-25T12:03:20.395Z,12.83
2023-03-25T12:06:16.425Z,12.88
2023-03-25T12:08:59.973Z,12.87
2023-03-25T12:11:54.821Z,12.89
2023-03-25T12:14:55.278Z,12.94
2023-03-25T12:17:37.136Z,12.94
2023-03-25T12:20:28.507Z,12.89
2023-03-25T12:23:01.357Z,12.94
2023-03-25T12:25:39.745Z,12.87
2023-03-25T12:28:38.605Z,12.89
2023-03-25T12:31:11.189Z,12.98
2023-03-25T12:34:01.661Z,13.10
2023-03-25T12:36:42.707Z,13.23
2023-03-25T12:39:42.911Z,13.24
2023-03-25T12:42:27.802Z,13.35
2023-03-25T12:45:03.927Z,13.46
2023-03-25T12:47:33.278Z,13.49
2023-03-25T12:50:22.324Z,13.94
2023-03-25T12:53:13.547Z,14.26
2023-03-25T12:56:01.768Z,14.41
2023-03-25T12:58:40.341Z,14.46
2023-03-25T13:01:24.203Z,14.40
2023-03-25T13:04:13.349Z,14.39
2023-03-25T13:06:48.478Z,14.52
2023-03-25T13:09:25.622Z,14.74
2023-03-25T13:11:56.901Z,14.51
2023-03-25T13:14:51.038Z,14.37
2023-03-25T13:17:44.198Z,14.33
2023-03-25T13:20:12.138Z,14.20
2023-03-25T13:22:44.360Z,14.09
2023-03-25T13:25:20.554Z,13.95
2023-03-25T13:27:49.730Z,13.86
2023-03-25T13:30:29.138Z,13.72
2023-03-25T13:33:01.809Z,13.67
2023-03-25T13:35:44.952Z,13.63
2023-03-25T13:38:19.269Z,13.53
2023-03-25T13:40:58.172Z,13.41
2023-03-25T13:43:42.888Z,13.19
2023-03-25T13:46:13.673Z,13.10
2023-03-25T13:48:58.187Z,12.93
2023-03-25T13:51:24.817Z,12.72
2023-03-25T13:53:56.811Z,12.57
2023-03-25T13:56:41.639Z,12.36
2023-03-25T13:59:31.184Z,11.89
2023-03-25T14:02:39.850Z,11.44
2023-03-25T14:05:16.856Z,11.26
2023-03-25T14:07:49.671Z,11.04
2023-03-25T14:10:38.361Z,11.07
2023-03-25T14:13:09.896Z,11.12
2023-03-25T14:15:39.236Z,11.16
2023-03-25T14:18:13.325Z,11.10
2023-03-25T14:20:48.347Z,11.08
2023-03-25T14:23:22.534Z,11.15
2023-03-25T14:25:54.470Z,11.12
2023-03-25T14:28:37.572Z,11.20
2023-03-25T14:31:31.721Z,11.29
2023-03-25T14:34:02.984Z,11.39
2023-03-25T14:36:52.300Z,11.63
2023-03-25T14:39:24.870Z,11.89
2023-03-25T14:41:56.663Z,12.62
2023-03-25T14:44:28.749Z,13.68
2023-03-25T14:47:16.252Z,14.55
2023-03-25T14:50:05.263Z,14.70
2023-03-25T14:52:46.648Z,14.46
2023-03-25T14:55:25.854Z,14.02
2023-03-25T14:57:59.699Z,13.68
2023-03-25T15:00:34.132Z,13.46
2023-03-25T15:03:10.740Z,13.53
2023-03-25T15:05:37.879Z,14.03
2023-03-25T15:08:04.615Z,13.49
2023-03-25T15:10:39.449Z,13.35
2023-03-25T15:13:32.046Z,13.46
2023-03-25T15:16:04.140Z,13.27
2023-03-25T15:18:36.973Z,13.10
2023-03-25T15:21:04.580Z,12.95
2023-03-25T15:23:36.767Z,12.74
2023-03-25T15:26:04.973Z,12.65
2023-03-25T15:29:13.618Z,12.33
2023-03-25T15:31:49.424Z,11.93
2023-03-25T15:34:41.107Z,11.83
2023-03-25T15:37:30.332Z,11.66
2023-03-25T15:40:34.930Z,11.35
2023-03-25T15:43:22.745Z,11.28
2023-03-25T15:46:21.540Z,11.35
2023-03-25T15:49:22.877Z,11.69
2023-03-25T15:52:24.486Z,11.93
2023-03-25T15:55:02.975Z,11.93
2023-03-25T15:57:34.564Z,12.09
2023-03-25T16:00:14.214Z,12.18
2023-03-25T16:02:49.391Z,12.20
2023-03-25T16:05:16.971Z,12.19
2023-03-25T16:07:45.854Z,12.14
2023-03-25T16:10:35.964Z,12.12
2023-03-25T16:13:07.257Z,12.06
2023-03-25T16:15:36.888Z,11.99
2023-03-25T16:18:07.411Z,12.00
2023-03-25T16:20:36.619Z,12.10
2023-03-25T16:23:07.519Z,12.13
2023-03-25T16:25:38.031Z,12.12
2023-03-25T16:28:07.438Z,12.04
2023-03-25T16:30:36.745Z,11.99
2023-03-25T16:33:12.534Z,12.01
2023-03-25T16:35:49.424Z,11.88
2023-03-25T16:38:20.010Z,11.77
2023-03-25T16:40:49.684Z,11.67
2023-03-25T16:43:23.173Z,11.74
2023-03-25T16:45:51.766Z,11.72
2023-03-25T16:48:23.591Z,11.63
2023-03-25T16:50:54.228Z,11.61
2023-03-25T16:53:22.540Z,11.63
2023-03-25T16:55:52.966Z,11.61
2023-03-25T16:58:25.022Z,11.62
2023-03-25T17:00:55.350Z,11.58
2023-03-25T17:03:46.333Z,11.62
2023-03-25T17:06:27.494Z,11.58
2023-03-25T17:08:56.551Z,11.64
2023-03-25T17:11:27.595Z,11.50
2023-03-25T17:14:00.262Z,11.09
2023-03-25T17:16:33.063Z,10.91
2023-03-25T17:19:00.989Z,10.82
2023-03-25T17:21:33.971Z,10.75
2023-03-25T17:24:22.053Z,10.70
2023-03-25T17:27:04.024Z,10.68
2023-03-25T17:29:30.534Z,10.70
2023-03-25T17:31:59.138Z,10.74
2023-03-25T17:34:27.475Z,10.70
2023-03-25T17:37:03.844Z,10.69
2023-03-25T17:39:32.907Z,10.66
2023-03-25T17:42:19.443Z,10.70
2023-03-25T17:44:45.911Z,10.75
2023-03-25T17:47:18.552Z,10.76
2023-03-25T17:49:45.195Z,10.77
2023-03-25T17:52:11.546Z,10.78
2023-03-25T17:54:38.015Z,10.75
2023-03-25T17:57:09.263Z,10.70
2023-03-25T17:59:35.713Z,10.80
2023-03-25T18:02:02.172Z,10.85
2023-03-25T18:04:28.527Z,10.81
2023-03-25T18:06:54.890Z,10.76
2023-03-25T18:09:24.092Z,10.69
2023-03-25T18:11:53.411Z,10.47
2023-03-25T18:14:24.479Z,10.33
2023-03-25T18:16:51.660Z,10.13
2023-03-25T18:19:21.546Z,10.07
2023-03-25T18:21:48.066Z,10.06
2023-03-25T18:24:14.904Z,10.10
2023-03-25T18:26:43.511Z,10.07
2023-03-25T18:29:31.091Z,10.01
2023-03-25T18:31:58.603Z,9.98
2023-03-25T18:34:26.059Z,9.96
2023-03-25T18:36:53.897Z,9.88
2023-03-25T18:39:26.114Z,9.88
2023-03-25T18:41:52.765Z,9.94
2023-03-25T18:44:19.198Z,9.96
2023-03-25T18:46:46.416Z,9.99
2023-03-25T18:49:18.538Z,9.95
2023-03-25T18:51:48.122Z,9.91
2023-03-25T18:54:15.356Z,9.87
2023-03-25T18:56:42.113Z,9.73
2023-03-25T18:59:18.617Z,9.65
2023-03-25T19:01:45.190Z,9.68
2023-03-25T19:04:11.643Z,9.64
2023-03-25T19:06:39.193Z,9.65
2023-03-25T19:09:08.481Z,9.67
2023-03-25T19:11:35.678Z,9.68
2023-03-25T19:14:02.022Z,9.73
2023-03-25T19:16:28.466Z,9.70
2023-03-25T19:18:54.837Z,9.69
2023-03-25T19:21:21.306Z,9.70
2023-03-25T19:23:47.928Z,9.67
2023-03-25T19:26:14.724Z,9.62
2023-03-25T19:28:41.330Z,9.67
2023-03-25T19:31:08.260Z,9.67
2023-03-25T19:33:34.873Z,9.76
2023-03-25T19:36:04.432Z,9.73
2023-03-25T19:38:32.804Z,9.76
2023-03-25T19:41:10.822Z,9.80
2023-03-25T19:43:37.933Z,9.86
2023-03-25T19:46:05.775Z,9.91
2023-03-25T19:48:32.860Z,9.95
2023-03-25T19:50:59.627Z,10.03
2023-03-25T19:53:27.256Z,10.04
2023-03-25T19:55:54.685Z,10.02
2023-03-25T19:58:22.983Z,10.00
2023-03-25T20:00:49.965Z,10.00
2023-03-25T20:03:16.421Z,10.03
2023-03-25T20:05:43.024Z,10.04
2023-03-25T20:08:10.601Z,10.03
2023-03-25T20:10:38.991Z,10.02
2023-03-25T20:13:05.882Z,10.07
2023-03-25T20:15:33.108Z,10.12
2023-03-25T20:17:59.699Z,10.12
2023-03-25T20:20:26.297Z,10.11
2023-03-25T20:22:53.089Z,10.16
2023-03-25T20:25:19.681Z,10.17
2023-03-25T20:27:46.228Z,10.20
2023-03-25T20:30:15.479Z,10.21
2023-03-25T20:32:44.226Z,10.21
2023-03-25T20:35:13.320Z,10.22
2023-03-25T20:37:41.180Z,10.20
2023-03-25T20:40:11.614Z,10.13
2023-03-25T20:42:43.633Z,10.18
2023-03-25T20:45:12.374Z,10.16
2023-03-25T20:47:38.846Z,10.17
2023-03-25T20:50:07.267Z,10.16
2023-03-25T20:52:35.808Z,10.17
2023-03-25T20:55:02.502Z,10.24
2023-03-25T20:57:28.816Z,10.27
2023-03-25T20:59:56.423Z,10.31
2023-03-25T21:02:22.884Z,10.36
2023-03-25T21:04:49.820Z,10.39
2023-03-25T21:07:19.023Z,10.43
2023-03-25T21:09:47.229Z,10.46
2023-03-25T21:12:13.754Z,10.48
2023-03-25T21:14:40.158Z,10.47
2023-03-25T21:17:06.865Z,10.47
2023-03-25T21:19:33.625Z,10.52
2023-03-25T21:21:59.991Z,10.55
2023-03-25T21:24:27.007Z,10.59
2023-03-25T21:26:53.466Z,10.59
2023-03-25T21:29:20.968Z,10.64
2023-03-25T21:31:47.633Z,10.68
2023-03-25T21:34:15.784Z,10.68
2023-03-25T21:36:43.366Z,10.69
2023-03-25T21:39:10.603Z,10.71
2023-03-25T21:41:37.389Z,10.72
2023-03-25T21:44:05.376Z,10.70
2023-03-25T21:46:33.510Z,10.67
2023-03-25T21:49:01.216Z,10.70
2023-03-25T21:51:30.336Z,10.75
2023-03-25T21:53:58.328Z,10.71
2023-03-25T21:56:27.198Z,10.73
2023-03-25T21:58:53.852Z,10.74
2023-03-25T22:01:28.513Z,10.76
2023-03-25T22:04:00.099Z,10.76
2023-03-25T22:06:29.501Z,10.74
2023-03-25T22:08:59.340Z,10.72
2023-03-25T22:11:30.609Z,10.69
2023-03-25T22:13:58.191Z,10.70
2023-03-25T22:16:25.262Z,10.71
2023-03-25T22:18:52.047Z,10.74
2023-03-25T22:21:24.600Z,10.77
2023-03-25T22:23:54.682Z,10.79
2023-03-25T22:26:23.018Z,10.79
2023-03-25T22:28:54.387Z,10.80
2023-03-25T22:31:25.790Z,10.85
2023-03-25T22:33:55.032Z,10.78
2023-03-25T22:36:21.488Z,10.79
2023-03-25T22:38:52.236Z,10.82
2023-03-25T22:41:19.532Z,10.82
2023-03-25T22:43:46.556Z,10.77
2023-03-25T22:46:13.080Z,10.78
2023-03-25T22:48:39.982Z,10.87
2023-03-25T22:51:11.943Z,10.85
2023-03-25T22:53:38.537Z,10.84
2023-03-25T22:56:05.494Z,10.86
2023-03-25T22:58:32.341Z,10.82
2023-03-25T23:01:02.705Z,10.82
2023-03-25T23:03:30.094Z,10.80
2023-03-25T23:06:06.330Z,10.85
2023-03-25T23:08:36.886Z,10.88
2023-03-25T23:11:26.836Z,10.86
2023-03-25T23:13:56.661Z,10.90
2023-03-25T23:16:25.650Z,10.90
2023-03-25T23:18:52.794Z,10.91
2023-03-25T23:21:22.367Z,10.88
2023-03-25T23:23:52.644Z,10.87
2023-03-25T23:26:24.429Z,10.86
2023-03-25T23:28:51.324Z,10.85
2023-03-25T23:31:28.533Z,10.86
2023-03-25T23:33:58.372Z,10.87
2023-03-25T23:36:25.958Z,10.87
2023-03-25T23:38:53.829Z,10.89
2023-03-25T23:41:22.964Z,10.91
2023-03-25T23:43:50.387Z,10.91
2023-03-25T23:46:21.236Z,10.93
2023-03-25T23:48:48.758Z,10.99
2023-03-25T23:51:19.952Z,10.94
2023-03-25T23:53:48.123Z,10.90
2023-03-25T23:56:17.074Z,10.90
2023-03-25T23:58:44.280Z,10.91
